Time;durP1;ratioP1;P1;durP2;ratioP2;P2;SDS_P1;SDS_P2;PMS_P1;PMS_P2;Temp;Humidity;BMP_temperature;BMP_pressure;BME280_temperature;BME280_humidity;BME280_pressure;Samples;Min_cycle;Max_cycle;Signal;HPM_P1;HPM_P2
2021/06/25 00:00:16;;;;;;;24.70;18.17;;;18.50;94.50;;;;;;5107555;28;20035;-82
2021/06/25 00:02:41;;;;;;;30.70;20.02;;;18.40;94.60;;;;;;5108131;28;20036;-83
2021/06/25 00:05:09;;;;;;;30.40;19.83;;;18.50;94.70;;;;;;5107915;28;20043;-82
2021/06/25 00:07:36;;;;;;;39.30;23.50;;;18.50;94.90;;;;;;5108120;28;20110;-82
2021/06/25 00:10:04;;;;;;;36.38;21.80;;;18.50;94.90;;;;;;5107536;28;20027;-82
2021/06/25 00:12:29;;;;;;;47.27;29.03;;;18.40;95.00;;;;;;5109239;28;20028;-82
2021/06/25 00:14:55;;;;;;;40.05;27.48;;;18.40;94.90;;;;;;5107914;28;20080;-83
2021/06/25 00:17:21;;;;;;;41.45;26.08;;;18.40;94.90;;;;;;5099843;28;20027;-83
2021/06/25 00:19:47;;;;;;;38.35;25.88;;;18.40;95.30;;;;;;5093523;28;20255;-83
2021/06/25 00:22:12;;;;;;;34.90;24.48;;;18.30;95.10;;;;;;5093903;28;20377;-83
2021/06/25 00:24:38;;;;;;;34.00;24.60;;;18.30;95.30;;;;;;5095146;28;20050;-82
2021/06/25 00:27:04;;;;;;;30.98;22.15;;;18.30;95.30;;;;;;5093838;28;20077;-82
2021/06/25 00:29:30;;;;;;;30.63;23.38;;;18.30;95.40;;;;;;5094097;28;20488;-83
2021/06/25 00:31:55;;;;;;;26.40;20.63;;;18.30;95.50;;;;;;5093423;28;20119;-82
2021/06/25 00:34:21;;;;;;;31.77;23.25;;;18.20;95.60;;;;;;5093646;28;20024;-82
2021/06/25 00:36:46;;;;;;;28.92;21.27;;;18.20;95.60;;;;;;5093483;28;20058;-82
2021/06/25 00:39:12;;;;;;;26.23;19.85;;;18.20;95.30;;;;;;5093906;28;20063;-82
2021/06/25 00:41:38;;;;;;;23.30;18.55;;;18.20;94.70;;;;;;5093071;28;20016;-83
2021/06/25 00:44:04;;;;;;;22.70;18.15;;;18.20;94.30;;;;;;5093142;28;20031;-83
2021/06/25 00:46:31;;;;;;;24.65;18.55;;;18.20;94.10;;;;;;5094574;28;20051;-82
2021/06/25 00:48:57;;;;;;;22.52;17.75;;;18.10;94.10;;;;;;5094001;28;20031;-82
2021/06/25 00:51:22;;;;;;;21.45;16.75;;;18.10;94.10;;;;;;5094505;28;20023;-82
2021/06/25 00:53:48;;;;;;;22.48;17.23;;;18.10;94.20;;;;;;5094466;28;20028;-82
2021/06/25 00:56:14;;;;;;;24.92;17.55;;;18.00;94.30;;;;;;5093151;28;20028;-82
2021/06/25 00:58:42;;;;;;;24.38;18.27;;;18.00;94.50;;;;;;5093185;28;20032;-82
2021/06/25 01:01:07;;;;;;;24.20;17.25;;;18.00;94.60;;;;;;5093672;28;20475;-82
2021/06/25 01:03:36;;;;;;;23.45;17.83;;;18.00;94.60;;;;;;5093173;28;20044;-82
2021/06/25 01:06:02;;;;;;;19.70;16.15;;;18.00;94.60;;;;;;5093047;28;20032;-82
2021/06/25 01:08:29;;;;;;;23.60;17.75;;;18.00;94.70;;;;;;5092978;28;20024;-83
2021/06/25 01:10:55;;;;;;;23.80;17.02;;;18.00;94.80;;;;;;5093521;28;20043;-82
2021/06/25 01:13:21;;;;;;;21.63;16.83;;;18.00;94.90;;;;;;5092635;28;20107;-83
2021/06/25 01:15:47;;;;;;;24.60;17.65;;;17.90;94.90;;;;;;5092876;28;20081;-82
2021/06/25 01:18:12;;;;;;;21.35;17.25;;;18.00;94.90;;;;;;5092808;28;20369;-82
2021/06/25 01:20:39;;;;;;;20.55;16.23;;;18.00;94.60;;;;;;5092086;28;20529;-83
2021/06/25 01:23:05;;;;;;;24.50;17.77;;;17.90;94.00;;;;;;5092704;28;20031;-82
2021/06/25 01:25:36;;;;;;;19.20;15.02;;;17.90;93.70;;;;;;5092547;28;20024;-82
2021/06/25 01:28:08;;;;;;;22.95;15.32;;;17.90;92.80;;;;;;5093262;28;20446;-83
2021/06/25 01:30:37;;;;;;;19.80;14.98;;;17.90;92.40;;;;;;5091854;28;20396;-82
2021/06/25 01:33:05;;;;;;;22.38;15.20;;;17.90;92.50;;;;;;5092072;28;20052;-82
2021/06/25 01:35:31;;;;;;;18.50;14.35;;;17.80;92.40;;;;;;5093766;28;20024;-83
2021/06/25 01:37:56;;;;;;;18.15;13.15;;;17.80;92.30;;;;;;5092723;28;20051;-82
2021/06/25 01:40:23;;;;;;;17.40;12.73;;;17.80;91.80;;;;;;5093121;28;20036;-82
2021/06/25 01:42:49;;;;;;;18.63;12.93;;;17.70;91.80;;;;;;5093881;28;20016;-83
2021/06/25 01:45:18;;;;;;;15.57;11.82;;;17.80;91.20;;;;;;5092270;28;20031;-83
2021/06/25 01:47:44;;;;;;;;;;;17.70;91.10;;;;;;5092665;28;20157;-82
2021/06/25 01:50:13;;;;;;;19.80;12.70;;;17.70;91.00;;;;;;5092951;28;20005;-83
2021/06/25 01:52:47;;;;;;;17.02;11.60;;;17.70;91.00;;;;;;5093411;28;20016;-83
2021/06/25 01:55:13;;;;;;;18.08;12.63;;;17.60;91.10;;;;;;5092141;28;20032;-82
2021/06/25 01:57:39;;;;;;;18.10;12.80;;;17.70;91.40;;;;;;5093281;28;20035;-83
2021/06/25 02:00:05;;;;;;;17.13;11.65;;;17.60;91.70;;;;;;5091735;28;20028;-83
2021/06/25 02:02:31;;;;;;;16.67;11.95;;;17.60;91.90;;;;;;5093321;28;20389;-83
2021/06/25 02:04:58;;;;;;;18.52;11.82;;;17.60;92.10;;;;;;5093219;28;20131;-82
2021/06/25 02:07:23;;;;;;;15.73;12.65;;;17.60;92.20;;;;;;5091905;28;20648;-82
2021/06/25 02:09:49;;;;;;;16.88;12.93;;;17.60;92.30;;;;;;5092775;28;20017;-82
2021/06/25 02:12:14;;;;;;;18.33;13.52;;;17.60;92.30;;;;;;5092944;28;20020;-82
2021/06/25 02:14:40;;;;;;;14.65;12.15;;;17.50;92.30;;;;;;5092074;28;20028;-82
2021/06/25 02:17:06;;;;;;;19.60;12.65;;;17.60;92.40;;;;;;5093038;28;20028;-83
2021/06/25 02:19:31;;;;;;;17.10;12.93;;;17.50;92.70;;;;;;5091345;28;20123;-82
2021/06/25 02:21:57;;;;;;;18.02;13.30;;;17.50;92.90;;;;;;5091407;28;20072;-83
2021/06/25 02:24:24;;;;;;;18.95;13.30;;;17.50;92.60;;;;;;5091266;28;20082;-82
2021/06/25 02:26:49;;;;;;;20.15;14.00;;;17.50;92.60;;;;;;5092164;28;20015;-83
2021/06/25 02:29:15;;;;;;;20.48;15.55;;;17.50;93.00;;;;;;5091194;28;20043;-82
2021/06/25 02:31:41;;;;;;;16.00;13.45;;;17.50;93.40;;;;;;5093116;28;20093;-82
2021/06/25 02:34:07;;;;;;;19.67;14.43;;;17.50;93.50;;;;;;5091291;28;20483;-82
2021/06/25 02:36:32;;;;;;;17.92;13.98;;;17.40;93.60;;;;;;5092736;28;20473;-82
2021/06/25 02:38:58;;;;;;;19.75;14.80;;;17.40;93.70;;;;;;5092031;28;20042;-83
2021/06/25 02:41:24;;;;;;;18.33;13.90;;;17.30;93.90;;;;;;5092639;28;20422;-83
2021/06/25 02:43:49;;;;;;;18.17;14.50;;;17.30;94.30;;;;;;5092896;28;20069;-82
2021/06/25 02:46:15;;;;;;;20.02;14.32;;;17.20;94.10;;;;;;5092371;28;20038;-82
2021/06/25 02:48:41;;;;;;;21.92;14.48;;;17.20;94.10;;;;;;5091381;28;20028;-82
2021/06/25 02:51:07;;;;;;;19.48;15.40;;;17.20;94.30;;;;;;5090051;28;20434;-82
2021/06/25 02:53:32;;;;;;;21.58;14.98;;;17.10;94.30;;;;;;5092520;28;20043;-82
2021/06/25 02:55:58;;;;;;;21.80;15.32;;;17.10;94.40;;;;;;5091178;28;20397;-84
2021/06/25 02:58:25;;;;;;;24.52;16.15;;;17.10;94.60;;;;;;5091145;28;20028;-83
2021/06/25 03:00:55;;;;;;;19.75;15.18;;;17.00;94.70;;;;;;5090463;28;20051;-82
2021/06/25 03:03:21;;;;;;;20.73;15.85;;;17.00;94.70;;;;;;5091113;28;20123;-82
2021/06/25 03:05:49;;;;;;;20.60;15.23;;;16.90;94.80;;;;;;5090909;28;20396;-82
2021/06/25 03:08:15;;;;;;;23.55;16.67;;;16.90;94.90;;;;;;5091114;28;20285;-83
2021/06/25 03:10:46;;;;;;;18.88;15.60;;;16.90;95.00;;;;;;5090395;28;20416;-82
2021/06/25 03:13:13;;;;;;;20.42;14.77;;;16.80;95.20;;;;;;5092282;28;20020;-83
2021/06/25 03:15:39;;;;;;;21.17;15.02;;;16.80;95.30;;;;;;5092271;28;20030;-83
2021/06/25 03:18:05;;;;;;;22.00;15.30;;;16.80;95.30;;;;;;5092091;28;20020;-83
2021/06/25 03:20:30;;;;;;;19.77;15.77;;;16.80;95.30;;;;;;5090325;28;20081;-82
2021/06/25 03:22:56;;;;;;;23.58;16.92;;;16.80;95.30;;;;;;5090956;28;20024;-82
2021/06/25 03:25:22;;;;;;;21.30;16.75;;;16.80;95.30;;;;;;5090971;28;20120;-83
2021/06/25 03:27:48;;;;;;;26.13;16.63;;;16.70;95.60;;;;;;5091073;28;20130;-82
2021/06/25 03:30:14;;;;;;;20.98;16.40;;;16.70;95.70;;;;;;5091462;28;20051;-82
2021/06/25 03:32:40;;;;;;;22.48;17.23;;;16.70;95.80;;;;;;5090579;28;20032;-82
2021/06/25 03:35:07;;;;;;;26.70;16.25;;;16.60;95.90;;;;;;5090768;28;20050;-82
2021/06/25 03:37:33;;;;;;;22.52;16.90;;;16.60;96.00;;;;;;5090760;28;20024;-82
2021/06/25 03:39:59;;;;;;;21.25;15.32;;;16.50;96.10;;;;;;5090406;28;20530;-82
2021/06/25 03:42:25;;;;;;;23.13;15.60;;;16.50;96.50;;;;;;5092399;28;20028;-82
2021/06/25 03:44:50;;;;;;;21.50;15.52;;;16.50;96.30;;;;;;5092046;28;20500;-82
2021/06/25 03:47:16;;;;;;;22.85;16.58;;;16.40;96.40;;;;;;5092069;28;20020;-82
2021/06/25 03:49:42;;;;;;;22.45;15.95;;;16.40;96.60;;;;;;5090296;28;20024;-83
2021/06/25 03:52:07;;;;;;;25.15;19.08;;;16.40;96.60;;;;;;5092280;28;20135;-83
2021/06/25 03:54:34;;;;;;;24.27;18.55;;;16.40;96.80;;;;;;5095809;28;20031;-83
2021/06/25 03:56:59;;;;;;;24.88;19.13;;;16.50;96.80;;;;;;5095852;28;20028;-82
2021/06/25 03:59:25;;;;;;;25.27;19.85;;;16.50;96.80;;;;;;5095440;28;20023;-83
2021/06/25 04:01:52;;;;;;;25.15;18.33;;;16.60;97.10;;;;;;5094479;28;20020;-82
2021/06/25 04:04:18;;;;;;;24.25;19.10;;;16.60;96.70;;;;;;5094714;28;20028;-82
2021/06/25 04:06:44;;;;;;;26.70;19.23;;;16.60;96.60;;;;;;5095709;28;20061;-84
2021/06/25 04:09:10;;;;;;;24.20;18.55;;;16.60;96.50;;;;;;5095494;28;20039;-83
2021/06/25 04:11:36;;;;;;;24.80;18.17;;;16.60;96.50;;;;;;5094694;28;20111;-82
2021/06/25 04:14:03;;;;;;;24.45;19.33;;;16.60;96.40;;;;;;5094481;28;20078;-82
2021/06/25 04:16:28;;;;;;;25.67;18.85;;;16.60;96.30;;;;;;5094514;28;20194;-82
2021/06/25 04:18:54;;;;;;;24.58;18.52;;;16.60;96.00;;;;;;5093825;28;20397;-83
2021/06/25 04:21:21;;;;;;;24.05;18.30;;;16.60;96.20;;;;;;5094288;28;20092;-82
2021/06/25 04:23:47;;;;;;;20.40;16.15;;;16.60;96.00;;;;;;5094209;28;20043;-82
2021/06/25 04:26:13;;;;;;;21.90;17.45;;;16.60;96.00;;;;;;5094270;28;20488;-82
2021/06/25 04:28:39;;;;;;;22.75;17.88;;;16.50;96.00;;;;;;5094623;28;20021;-83
2021/06/25 04:31:05;;;;;;;23.77;18.20;;;16.50;96.20;;;;;;5094218;28;20239;-83
2021/06/25 04:33:30;;;;;;;24.27;18.33;;;16.60;95.90;;;;;;5096096;28;20426;-82
2021/06/25 04:35:56;;;;;;;26.10;19.27;;;16.60;95.90;;;;;;5094249;28;20031;-82
2021/06/25 04:38:22;;;;;;;23.35;17.75;;;16.60;96.10;;;;;;5094113;28;20023;-83
2021/06/25 04:40:49;;;;;;;21.55;17.60;;;16.60;95.70;;;;;;5093347;28;20020;-83
2021/06/25 04:43:15;;;;;;;23.58;17.13;;;16.60;95.60;;;;;;5093888;28;20510;-83
2021/06/25 04:45:42;;;;;;;24.70;18.00;;;16.60;95.50;;;;;;5094086;28;20090;-82
2021/06/25 04:48:13;;;;;;;23.77;18.52;;;16.60;95.50;;;;;;5095080;28;20020;-82
2021/06/25 04:50:41;;;;;;;22.17;17.50;;;16.60;95.10;;;;;;5095363;28;20024;-84
2021/06/25 04:53:07;;;;;;;23.00;18.10;;;16.60;94.90;;;;;;5094009;28;20031;-82
2021/06/25 04:55:42;;;;;;;24.13;17.90;;;16.60;95.00;;;;;;5094149;28;20060;-82
2021/06/25 04:58:10;;;;;;;24.90;18.75;;;16.70;95.00;;;;;;5095229;28;20024;-83
2021/06/25 05:00:39;;;;;;;24.90;18.45;;;16.60;94.80;;;;;;5093874;28;20028;-82
2021/06/25 05:03:06;;;;;;;22.27;17.20;;;16.70;94.90;;;;;;5095319;28;20041;-82
2021/06/25 05:05:33;;;;;;;22.65;17.90;;;16.60;94.90;;;;;;5095685;28;20519;-83
2021/06/25 05:07:58;;;;;;;27.45;18.20;;;16.60;94.90;;;;;;5095453;28;20020;-83
2021/06/25 05:10:24;;;;;;;23.38;17.92;;;16.60;94.80;;;;;;5094429;28;20076;-82
2021/06/25 05:12:50;;;;;;;25.23;19.02;;;16.70;95.00;;;;;;5094686;28;20488;-82
2021/06/25 05:15:16;;;;;;;27.60;20.13;;;16.70;94.90;;;;;;5094556;28;20027;-82
2021/06/25 05:17:42;;;;;;;27.42;18.98;;;16.70;94.90;;;;;;5092718;28;20118;-83
2021/06/25 05:20:08;;;;;;;25.83;19.27;;;16.70;94.90;;;;;;5092648;28;20111;-84
2021/06/25 05:22:34;;;;;;;22.60;17.45;;;16.80;95.00;;;;;;5092610;28;20024;-84
2021/06/25 05:25:00;;;;;;;25.67;18.42;;;16.80;95.10;;;;;;5093927;28;20024;-84
2021/06/25 05:27:25;;;;;;;25.20;18.50;;;16.80;95.00;;;;;;5093620;28;20074;-84
2021/06/25 05:29:51;;;;;;;28.15;18.92;;;16.90;94.90;;;;;;5093094;28;20020;-84
2021/06/25 05:32:17;;;;;;;26.20;19.02;;;16.90;94.70;;;;;;5092197;28;20020;-84
2021/06/25 05:34:45;;;;;;;28.77;18.95;;;16.90;94.50;;;;;;5092363;28;20024;-84
2021/06/25 05:37:11;;;;;;;26.73;18.48;;;17.00;94.60;;;;;;5092341;28;20049;-83
2021/06/25 05:39:36;;;;;;;27.92;18.95;;;17.00;93.90;;;;;;5091676;28;20020;-83
2021/06/25 05:42:02;;;;;;;32.50;20.38;;;17.00;93.30;;;;;;5091969;28;20080;-84
2021/06/25 05:44:28;;;;;;;26.10;19.20;;;17.10;93.40;;;;;;5092386;28;20047;-85
2021/06/25 05:46:53;;;;;;;35.47;21.23;;;17.10;93.40;;;;;;5092245;28;20028;-84
2021/06/25 05:49:19;;;;;;;28.17;19.80;;;17.10;93.40;;;;;;5091357;28;20035;-84
2021/06/25 05:51:45;;;;;;;34.90;20.75;;;17.20;92.80;;;;;;5091861;28;20031;-83
2021/06/25 05:54:10;;;;;;;29.85;19.50;;;17.20;92.30;;;;;;5093192;28;20020;-84
2021/06/25 05:56:36;;;;;;;25.63;18.15;;;17.20;92.10;;;;;;5093250;28;20389;-84
2021/06/25 05:59:02;;;;;;;27.98;18.17;;;17.30;92.10;;;;;;5091215;28;20020;-84
2021/06/25 06:01:29;;;;;;;33.25;21.50;;;17.30;91.50;;;;;;5091521;28;20020;-84
2021/06/25 06:03:55;;;;;;;30.08;20.33;;;17.30;92.00;;;;;;5091810;28;20020;-83
2021/06/25 06:06:21;;;;;;;32.90;20.75;;;17.30;92.40;;;;;;5091643;28;20135;-84
2021/06/25 06:08:47;;;;;;;32.53;22.52;;;17.30;92.80;;;;;;5093103;28;20497;-84
2021/06/25 06:11:12;;;;;;;35.67;21.30;;;17.30;92.70;;;;;;5092416;28;20044;-84
2021/06/25 06:13:38;;;;;;;31.83;21.05;;;17.30;93.00;;;;;;5091457;28;20476;-85
2021/06/25 06:16:04;;;;;;;28.90;20.33;;;17.30;93.00;;;;;;5092234;28;20024;-84
2021/06/25 06:18:35;;;;;;;30.48;21.08;;;17.30;93.00;;;;;;5091645;28;20422;-84
2021/06/25 06:21:01;;;;;;;30.80;21.42;;;17.30;93.20;;;;;;5092163;28;20020;-84
2021/06/25 06:31:43;;;;;;;29.02;20.27;;;17.40;92.80;;;;;;5092444;28;20043;-84
2021/06/25 06:34:11;;;;;;;38.78;21.38;;;17.50;92.40;;;;;;5091546;28;20028;-84
2021/06/25 06:36:45;;;;;;;30.27;19.40;;;17.50;92.10;;;;;;5092805;28;20395;-84
2021/06/25 06:39:13;;;;;;;27.65;18.65;;;17.50;92.00;;;;;;5090718;28;20056;-84
2021/06/25 06:41:39;;;;;;;27.92;17.50;;;17.60;91.90;;;;;;5090986;28;20028;-83
2021/06/25 06:44:05;;;;;;;28.13;18.33;;;17.60;91.20;;;;;;5091121;28;20035;-83
2021/06/25 06:46:32;;;;;;;26.98;17.15;;;17.60;91.10;;;;;;5090919;28;20038;-84
2021/06/25 06:48:59;;;;;;;24.33;16.30;;;17.70;91.10;;;;;;5090647;28;20403;-83
2021/06/25 06:51:25;;;;;;;28.67;18.77;;;17.70;91.10;;;;;;5090799;28;20016;-84
2021/06/25 06:53:51;;;;;;;29.08;18.42;;;17.80;91.90;;;;;;5090754;28;20047;-84
2021/06/25 06:56:19;;;;;;;27.35;19.13;;;17.80;92.10;;;;;;5090829;28;20058;-84
2021/06/25 06:58:46;;;;;;;26.63;18.83;;;17.80;92.10;;;;;;5090776;28;20035;-83
2021/06/25 07:01:12;;;;;;;27.50;18.30;;;17.80;92.00;;;;;;5091491;28;20457;-84
2021/06/25 07:03:37;;;;;;;26.65;18.20;;;17.80;92.10;;;;;;5090837;28;20028;-84
2021/06/25 07:06:04;;;;;;;28.60;18.67;;;17.90;91.70;;;;;;5091789;28;20036;-83
2021/06/25 07:08:30;;;;;;;25.50;16.70;;;17.90;91.70;;;;;;5092247;28;20016;-84
2021/06/25 07:10:56;;;;;;;30.20;19.80;;;18.00;91.60;;;;;;5091463;28;20020;-84
2021/06/25 07:13:22;;;;;;;32.45;19.75;;;18.00;91.60;;;;;;5090610;28;20063;-84
2021/06/25 07:15:48;;;;;;;23.20;16.48;;;18.00;91.70;;;;;;5090761;28;20078;-84
2021/06/25 07:18:14;;;;;;;29.92;19.02;;;18.10;91.70;;;;;;5091868;28;20028;-84
2021/06/25 07:20:40;;;;;;;22.75;16.48;;;18.10;90.80;;;;;;5090248;28;20032;-83
2021/06/25 07:23:06;;;;;;;27.33;18.70;;;18.20;91.00;;;;;;5090761;28;20034;-83
2021/06/25 07:25:32;;;;;;;25.92;18.35;;;18.20;91.40;;;;;;5091918;28;20484;-84
2021/06/25 07:27:57;;;;;;;27.17;18.08;;;18.20;91.50;;;;;;5093690;28;20032;-84
2021/06/25 07:30:24;;;;;;;23.95;16.75;;;18.20;91.40;;;;;;5095101;28;20062;-83
2021/06/25 07:32:50;;;;;;;24.38;17.25;;;18.20;91.60;;;;;;5094658;28;20062;-83
2021/06/25 07:35:16;;;;;;;26.45;18.70;;;18.20;91.70;;;;;;5094712;28;20028;-84
2021/06/25 07:37:42;;;;;;;24.95;16.65;;;18.30;91.70;;;;;;5095749;28;20530;-84
2021/06/25 07:40:08;;;;;;;26.08;18.27;;;18.30;91.30;;;;;;5093777;28;20111;-84
2021/06/25 07:42:34;;;;;;;24.95;18.17;;;18.30;91.30;;;;;;5094450;28;20038;-84
2021/06/25 07:45:04;;;;;;;31.67;18.90;;;18.40;91.40;;;;;;5094351;28;20036;-84
2021/06/25 07:47:30;;;;;;;27.70;17.60;;;18.40;90.90;;;;;;5094458;28;20031;-84
2021/06/25 07:49:55;;;;;;;28.40;18.67;;;18.40;90.80;;;;;;5093892;28;20057;-84
2021/06/25 07:52:21;;;;;;;24.63;16.42;;;18.50;90.80;;;;;;5095356;28;20032;-84
2021/06/25 07:54:47;;;;;;;21.77;16.80;;;18.50;91.10;;;;;;5094168;28;20028;-84
2021/06/25 07:57:12;;;;;;;25.30;16.83;;;18.60;91.10;;;;;;5094279;28;20116;-84
2021/06/25 07:59:38;;;;;;;25.58;18.00;;;18.60;90.90;;;;;;5094817;28;20365;-83
2021/06/25 08:02:04;;;;;;;26.30;17.83;;;18.70;90.80;;;;;;5094240;28;20031;-84
2021/06/25 08:04:31;;;;;;;29.65;18.20;;;18.80;90.90;;;;;;5093950;28;20077;-84
2021/06/25 08:06:57;;;;;;;23.58;15.80;;;18.90;90.80;;;;;;5094161;28;20032;-84
2021/06/25 08:09:22;;;;;;;24.17;15.60;;;19.00;90.90;;;;;;5093781;28;20038;-84
2021/06/25 08:11:48;;;;;;;24.90;16.38;;;19.00;90.80;;;;;;5093899;28;20373;-83
2021/06/25 08:14:14;;;;;;;22.65;16.30;;;19.10;90.00;;;;;;5094061;28;20563;-84
2021/06/25 08:16:39;;;;;;;21.38;14.68;;;19.10;90.00;;;;;;5093623;28;20046;-84
2021/06/25 08:19:07;;;;;;;23.92;15.13;;;19.20;90.00;;;;;;5094660;28;20081;-83
2021/06/25 08:21:33;;;;;;;19.65;13.95;;;19.20;89.20;;;;;;5093810;28;20024;-83
2021/06/25 08:23:59;;;;;;;20.27;14.70;;;19.20;88.50;;;;;;5095237;28;20027;-83
2021/06/25 08:26:25;;;;;;;22.88;15.45;;;19.20;88.80;;;;;;5093870;28;20024;-83
2021/06/25 08:28:52;;;;;;;24.55;16.17;;;19.30;87.70;;;;;;5093367;28;20102;-83
2021/06/25 08:31:18;;;;;;;19.83;13.82;;;19.20;86.50;;;;;;5093452;28;20031;-84
2021/06/25 08:33:43;;;;;;;18.08;12.80;;;19.20;86.90;;;;;;5093620;28;20023;-84
2021/06/25 08:36:09;;;;;;;19.48;13.43;;;19.20;87.20;;;;;;5093392;28;20028;-83
2021/06/25 08:38:35;;;;;;;19.30;14.23;;;19.20;86.50;;;;;;5093118;28;20024;-84
2021/06/25 08:41:01;;;;;;;19.73;13.23;;;19.30;86.80;;;;;;5092596;28;20058;-83
2021/06/25 08:43:28;;;;;;;27.00;14.60;;;19.30;87.00;;;;;;5093245;28;20020;-84
2021/06/25 08:45:54;;;;;;;20.10;12.35;;;19.30;87.10;;;;;;5093291;28;20116;-84
2021/06/25 08:48:24;;;;;;;22.75;12.73;;;19.30;87.30;;;;;;5094559;28;20039;-83
2021/06/25 08:50:52;;;;;;;19.67;13.77;;;19.30;87.00;;;;;;5093835;28;20032;-84
2021/06/25 08:53:18;;;;;;;18.65;13.93;;;19.30;87.10;;;;;;5094251;28;20024;-83
2021/06/25 08:55:44;;;;;;;18.63;11.73;;;19.40;87.20;;;;;;5093079;28;20028;-84
2021/06/25 08:58:20;;;;;;;16.73;11.77;;;19.40;87.50;;;;;;5094470;28;20381;-83
2021/06/25 09:00:46;;;;;;;19.42;13.60;;;19.50;87.50;;;;;;5092378;28;20059;-84
2021/06/25 09:03:23;;;;;;;21.92;13.25;;;19.60;86.60;;;;;;5093000;28;20486;-84
2021/06/25 09:05:49;;;;;;;22.00;13.50;;;19.70;86.50;;;;;;5093180;28;20035;-84
2021/06/25 09:08:29;;;;;;;22.25;13.38;;;19.70;84.80;;;;;;5092962;28;20035;-84
2021/06/25 09:10:59;;;;;;;16.27;12.07;;;19.70;83.80;;;;;;5092307;28;20033;-84
2021/06/25 09:13:36;;;;;;;20.02;13.80;;;19.80;85.50;;;;;;5092686;28;20023;-84
2021/06/25 09:16:25;;;;;;;20.63;13.95;;;19.80;84.70;;;;;;5092974;28;20482;-83
2021/06/25 09:19:14;;;;;;;18.30;12.38;;;19.80;85.20;;;;;;5092294;28;20027;-84
2021/06/25 09:21:43;;;;;;;21.10;14.50;;;19.80;85.40;;;;;;5092642;28;20027;-84
2021/06/25 09:24:23;;;;;;;21.10;13.60;;;19.70;84.90;;;;;;5092554;28;20028;-84
2021/06/25 09:26:56;;;;;;;17.52;12.65;;;19.70;85.10;;;;;;5093925;28;20027;-83
2021/06/25 09:29:23;;;;;;;15.85;12.15;;;19.70;85.30;;;;;;5092090;28;20031;-84
2021/06/25 09:31:57;;;;;;;20.77;13.95;;;19.60;84.80;;;;;;5093649;28;20020;-83
2021/06/25 09:34:44;;;;;;;19.35;12.68;;;19.60;85.30;;;;;;5092571;28;20024;-84
2021/06/25 09:37:15;;;;;;;16.83;11.88;;;19.60;85.20;;;;;;5092575;28;20024;-84
2021/06/25 09:39:43;;;;;;;15.48;11.88;;;19.60;85.60;;;;;;5093030;28;20024;-84
2021/06/25 09:42:19;;;;;;;15.40;11.63;;;19.60;84.50;;;;;;5092109;28;20047;-83
2021/06/25 09:44:57;;;;;;;15.95;10.48;;;19.70;84.30;;;;;;5092178;28;20373;-84
2021/06/25 09:47:36;;;;;;;11.32;9.15;;;19.70;84.40;;;;;;5093570;28;20020;-84
2021/06/25 09:50:05;;;;;;;14.55;10.32;;;19.70;84.40;;;;;;5091868;28;20043;-84
2021/06/25 09:52:52;;;;;;;16.20;11.57;;;19.70;83.20;;;;;;5091816;28;20016;-83
2021/06/25 09:55:24;;;;;;;15.75;10.63;;;19.80;82.10;;;;;;5091959;28;20024;-84
2021/06/25 10:03:41;;;;;;;13.90;9.95;;;19.80;82.00;;;;;;5093047;28;20039;-84
2021/06/25 10:06:15;;;;;;;17.10;11.00;;;19.80;81.90;;;;;;5093065;28;20066;-84
2021/06/25 10:08:44;;;;;;;14.05;9.98;;;19.80;81.80;;;;;;5091765;28;20028;-84
2021/06/25 10:11:10;;;;;;;;;;;19.80;81.90;;;;;;5091609;28;20086;-84
2021/06/25 10:13:37;;;;;;;15.75;10.48;;;19.90;81.30;;;;;;5091575;28;19912;-84
2021/06/25 10:16:05;;;;;;;16.85;10.18;;;19.90;81.20;;;;;;5091507;28;20115;-83
2021/06/25 10:18:39;;;;;;;15.32;9.95;;;19.90;81.20;;;;;;5091531;28;20085;-84
2021/06/25 10:21:07;;;;;;;16.50;10.80;;;19.90;80.80;;;;;;5092098;28;20099;-84
2021/06/25 10:23:34;;;;;;;15.30;10.38;;;19.90;80.10;;;;;;5092805;28;20077;-84
2021/06/25 10:26:09;;;;;;;14.80;9.95;;;20.00;80.10;;;;;;5092595;28;20028;-84
2021/06/25 10:28:37;;;;;;;14.55;9.93;;;20.00;80.40;;;;;;5091434;28;20263;-84
2021/06/25 10:31:03;;;;;;;15.95;10.65;;;20.00;80.50;;;;;;5091964;28;20020;-84
2021/06/25 10:33:32;;;;;;;12.77;10.00;;;20.10;80.30;;;;;;5091151;28;20451;-84
2021/06/25 10:36:00;;;;;;;15.43;10.13;;;20.10;80.10;;;;;;5091127;28;20031;-84
2021/06/25 10:38:27;;;;;;;13.70;9.80;;;20.10;80.30;;;;;;5092513;28;20370;-84
2021/06/25 10:41:04;;;;;;;14.60;10.00;;;20.20;79.70;;;;;;5090508;28;20119;-84
2021/06/25 10:43:44;;;;;;;16.02;10.88;;;20.20;79.70;;;;;;5091287;28;20452;-83
2021/06/25 10:46:29;;;;;;;18.27;10.80;;;20.30;79.30;;;;;;5091013;28;20027;-84
2021/06/25 10:48:57;;;;;;;15.95;11.45;;;20.30;79.40;;;;;;5090392;28;20085;-84
2021/06/25 10:51:23;;;;;;;13.90;9.65;;;20.40;80.10;;;;;;5092477;28;20032;-84
2021/06/25 10:54:04;;;;;;;13.90;10.30;;;20.40;80.10;;;;;;5090803;28;20016;-84
2021/06/25 10:56:30;;;;;;;15.00;10.05;;;20.50;79.50;;;;;;5090693;28;20042;-84
2021/06/25 10:59:28;;;;;;;12.63;9.35;;;20.50;77.20;;;;;;5090239;28;20020;-83
2021/06/25 11:01:58;;;;;;;14.10;10.40;;;20.50;78.40;;;;;;5091849;28;20389;-84
2021/06/25 11:04:41;;;;;;;15.82;10.75;;;20.60;76.10;;;;;;5091002;28;20254;-84
2021/06/25 11:07:18;;;;;;;11.27;9.15;;;20.60;74.70;;;;;;5090781;28;20177;-83
2021/06/25 11:09:55;;;;;;;15.77;9.15;;;20.60;75.40;;;;;;5090235;28;20107;-84
2021/06/25 11:12:21;;;;;;;14.02;10.32;;;20.60;76.60;;;;;;5092041;28;20025;-84
2021/06/25 11:14:49;;;;;;;11.73;8.68;;;20.60;74.30;;;;;;5092043;28;20023;-84
2021/06/25 11:17:46;;;;;;;14.43;9.52;;;20.60;74.50;;;;;;5090684;28;20020;-84
2021/06/25 11:20:32;;;;;;;12.40;9.18;;;20.70;75.10;;;;;;5091697;28;20387;-84
2021/06/25 11:23:04;;;;;;;12.52;9.25;;;20.70;74.00;;;;;;5091845;28;20044;-84
2021/06/25 11:25:39;;;;;;;14.30;8.90;;;20.70;73.60;;;;;;5091980;28;20043;-84
2021/06/25 11:28:24;;;;;;;14.75;9.52;;;20.80;72.10;;;;;;5091842;28;20032;-83
2021/06/25 11:30:50;;;;;;;11.20;8.50;;;20.80;71.80;;;;;;5091028;28;20487;-84
2021/06/25 11:33:25;;;;;;;12.63;8.93;;;20.80;72.30;;;;;;5091603;28;20039;-84
2021/06/25 11:35:52;;;;;;;13.07;8.88;;;20.80;72.80;;;;;;5091729;28;20559;-84
2021/06/25 11:38:17;;;;;;;14.45;9.52;;;20.90;71.80;;;;;;5090313;28;20077;-84
2021/06/25 11:40:50;;;;;;;9.93;8.00;;;20.90;71.80;;;;;;5091167;28;20427;-84
2021/06/25 11:43:19;;;;;;;12.02;8.27;;;20.90;71.30;;;;;;5090353;28;20058;-84
2021/06/25 11:45:50;;;;;;;10.50;7.93;;;20.90;71.10;;;;;;5090572;28;20024;-84
2021/06/25 11:48:16;;;;;;;13.48;9.13;;;21.00;70.80;;;;;;5090191;28;20028;-84
2021/06/25 11:50:42;;;;;;;12.93;8.30;;;21.00;71.30;;;;;;5089650;28;20507;-84
2021/06/25 11:53:08;;;;;;;12.38;8.68;;;21.10;71.20;;;;;;5090376;28;20036;-84
2021/06/25 11:55:33;;;;;;;11.80;9.00;;;21.00;70.60;;;;;;5090305;28;20059;-84
2021/06/25 11:57:59;;;;;;;10.38;7.82;;;21.00;71.30;;;;;;5091630;28;20016;-84
2021/06/25 12:00:27;;;;;;;12.50;8.60;;;21.00;71.60;;;;;;5090870;28;20030;-84
2021/06/25 12:02:55;;;;;;;13.68;8.93;;;21.00;72.60;;;;;;5090246;28;20094;-84
2021/06/25 12:05:25;;;;;;;13.13;9.15;;;21.10;71.00;;;;;;5091395;28;20032;-84
2021/06/25 12:08:13;;;;;;;14.80;9.15;;;21.00;70.40;;;;;;5090175;28;20085;-84
2021/06/25 12:10:40;;;;;;;11.60;8.80;;;21.10;70.20;;;;;;5089652;28;20024;-84
2021/06/25 12:13:06;;;;;;;14.57;9.60;;;21.10;71.00;;;;;;5092948;28;20020;-84
2021/06/25 12:15:43;;;;;;;14.23;8.90;;;21.10;71.50;;;;;;5093872;28;20289;-84
2021/06/25 12:18:21;;;;;;;13.48;8.32;;;21.10;71.10;;;;;;5095202;28;20023;-84
2021/06/25 12:20:47;;;;;;;12.95;8.48;;;21.10;71.80;;;;;;5093230;28;20048;-84
2021/06/25 12:23:12;;;;;;;11.65;8.35;;;21.10;71.20;;;;;;5093815;28;20082;-84
2021/06/25 12:25:47;;;;;;;9.15;7.10;;;21.10;71.10;;;;;;5094066;28;20366;-84
2021/06/25 12:28:21;;;;;;;15.55;8.95;;;21.10;71.60;;;;;;5093879;28;20426;-84
2021/06/25 12:30:57;;;;;;;14.32;8.85;;;21.10;71.60;;;;;;5094234;28;20031;-84
2021/06/25 12:33:24;;;;;;;13.93;8.57;;;21.20;70.80;;;;;;5094802;28;20028;-83
2021/06/25 12:35:52;;;;;;;11.45;8.30;;;21.20;70.70;;;;;;5093413;28;20544;-84
2021/06/25 12:38:20;;;;;;;12.95;8.70;;;21.20;70.20;;;;;;5093564;28;20078;-84
2021/06/25 12:41:03;;;;;;;13.50;9.27;;;21.20;72.40;;;;;;5092725;28;20020;-84
2021/06/25 12:43:35;;;;;;;12.13;8.10;;;21.30;71.70;;;;;;5094717;28;20024;-84
2021/06/25 12:46:10;;;;;;;10.88;7.97;;;21.20;72.00;;;;;;5094642;28;20028;-83